Time;durP1;ratioP1;P1;durP2;ratioP2;P2;SDS_P1;SDS_P2;PMS_P1;PMS_P2;Temp;Humidity;BMP_temperature;BMP_pressure;BME280_temperature;BME280_humidity;BME280_pressure;Samples;Min_cycle;Max_cycle;Signal;HPM_P1;HPM_P2
2022/09/01 00:01:20;;;;;;;5.63;2.50;;;13.30;99.90;;;;;;5050633;28;20044;-62
2022/09/01 00:03:48;;;;;;;2.90;1.88;;;13.30;99.90;;;;;;5055713;28;20453;-62
2022/09/01 00:06:21;;;;;;;3.70;1.88;;;13.30;99.90;;;;;;5048398;28;20122;-62
2022/09/01 00:08:48;;;;;;;1.80;1.50;;;13.20;99.90;;;;;;5049218;28;20037;-62
2022/09/01 00:11:14;;;;;;;2.72;1.85;;;13.20;99.90;;;;;;5048412;28;20415;-62
2022/09/01 00:13:40;;;;;;;4.03;1.77;;;13.10;99.90;;;;;;5054933;28;20037;-62
2022/09/01 00:16:05;;;;;;;2.42;1.73;;;13.10;99.90;;;;;;5037289;28;20055;-62
2022/09/01 00:18:31;;;;;;;4.85;1.80;;;13.10;99.90;;;;;;5057780;28;20044;-62
2022/09/01 00:20:58;;;;;;;3.90;2.00;;;13.00;99.90;;;;;;5053218;28;20998;-61
2022/09/01 00:23:26;;;;;;;3.05;1.63;;;13.00;99.90;;;;;;5051878;28;20454;-63
2022/09/01 00:25:51;;;;;;;3.15;2.10;;;13.00;99.90;;;;;;5064456;28;20044;-62
2022/09/01 00:28:17;;;;;;;3.40;1.98;;;12.90;99.90;;;;;;5066735;28;20036;-62
2022/09/01 00:30:43;;;;;;;2.85;2.22;;;12.80;99.90;;;;;;5035448;28;20140;-62
2022/09/01 00:33:08;;;;;;;3.45;1.90;;;12.80;99.90;;;;;;5055080;28;20045;-62
2022/09/01 00:35:34;;;;;;;2.45;1.90;;;12.80;99.90;;;;;;5047496;28;20041;-62
2022/09/01 00:37:59;;;;;;;3.40;2.17;;;12.80;99.90;;;;;;5053608;28;20138;-62
2022/09/01 00:40:25;;;;;;;3.00;1.95;;;12.80;99.90;;;;;;5034811;28;20551;-62
2022/09/01 00:42:52;;;;;;;3.00;1.75;;;12.70;99.90;;;;;;5056030;28;20032;-60
2022/09/01 00:45:20;;;;;;;2.83;2.20;;;12.60;99.90;;;;;;5043196;28;20072;-62
2022/09/01 00:47:46;;;;;;;3.38;1.75;;;12.70;99.90;;;;;;5050593;28;20143;-62
2022/09/01 00:50:15;;;;;;;3.10;2.17;;;12.60;99.90;;;;;;5048942;28;20199;-62
2022/09/01 00:52:46;;;;;;;4.88;2.00;;;12.60;99.90;;;;;;5058321;28;20048;-62
2022/09/01 00:55:20;;;;;;;3.03;1.80;;;12.60;99.90;;;;;;5058042;28;20040;-62
2022/09/01 00:57:46;;;;;;;4.75;2.08;;;12.50;99.90;;;;;;5057174;28;20529;-62
2022/09/01 01:00:19;;;;;;;6.38;1.80;;;12.50;99.90;;;;;;5042545;28;20052;-62
2022/09/01 01:02:46;;;;;;;3.58;2.10;;;12.50;99.90;;;;;;5060241;28;20645;-60
2022/09/01 01:05:14;;;;;;;2.72;1.88;;;12.50;99.90;;;;;;5050987;28;20040;-62
2022/09/01 01:07:43;;;;;;;3.20;2.10;;;12.40;99.90;;;;;;5051155;28;20049;-62
2022/09/01 01:10:11;;;;;;;3.30;2.08;;;12.40;99.90;;;;;;5055804;28;20041;-62
2022/09/01 01:12:42;;;;;;;1.80;1.70;;;12.40;99.90;;;;;;5051131;28;20068;-62
2022/09/01 01:15:09;;;;;;;2.17;1.98;;;12.40;99.90;;;;;;5055659;28;20112;-62
2022/09/01 01:17:35;;;;;;;2.85;1.85;;;12.30;99.90;;;;;;5051358;28;20052;-62
2022/09/01 01:23:07;;;;;;;2.72;2.20;;;12.20;99.90;;;;;;5048123;28;20037;-62
2022/09/01 01:25:47;;;;;;;2.22;1.98;;;12.20;99.90;;;;;;5052650;28;20510;-62
2022/09/01 01:28:25;;;;;;;2.90;1.90;;;12.10;99.90;;;;;;5032636;28;20045;-62
2022/09/01 01:31:11;;;;;;;2.83;2.35;;;12.10;99.90;;;;;;5049649;28;20034;-62
2022/09/01 01:33:43;;;;;;;3.05;1.98;;;12.00;99.90;;;;;;5057901;28;20040;-62
2022/09/01 01:36:12;;;;;;;2.90;2.40;;;12.00;99.90;;;;;;5061146;28;20047;-61
2022/09/01 01:38:43;;;;;;;2.88;2.08;;;12.00;99.90;;;;;;5053304;28;20048;-62
2022/09/01 01:41:10;;;;;;;4.07;2.53;;;12.00;99.90;;;;;;5055021;28;20123;-61
2022/09/01 01:43:37;;;;;;;2.97;2.25;;;12.00;99.90;;;;;;5052525;28;20032;-62
2022/09/01 01:46:05;;;;;;;2.40;2.05;;;12.00;99.90;;;;;;5056041;28;20096;-62
2022/09/01 01:48:33;;;;;;;3.50;1.90;;;12.00;99.90;;;;;;5054157;28;20045;-62
2022/09/01 01:51:00;;;;;;;2.55;2.00;;;12.00;99.90;;;;;;5055184;28;20047;-62
2022/09/01 01:53:26;;;;;;;3.67;2.00;;;11.90;99.90;;;;;;5052922;28;20037;-61
2022/09/01 01:55:52;;;;;;;2.08;1.70;;;12.00;99.90;;;;;;5053955;28;20048;-62
2022/09/01 01:58:20;;;;;;;2.40;2.03;;;11.90;99.90;;;;;;5053573;28;20064;-62
2022/09/01 02:00:48;;;;;;;2.83;2.17;;;11.90;99.90;;;;;;5048767;28;20028;-62
2022/09/01 02:03:17;;;;;;;3.42;2.22;;;11.90;99.90;;;;;;5055357;28;20040;-62
2022/09/01 02:05:44;;;;;;;3.28;2.15;;;11.90;99.90;;;;;;5047936;28;20136;-62
2022/09/01 02:08:11;;;;;;;2.20;2.00;;;11.90;99.90;;;;;;5042391;28;20040;-62
2022/09/01 02:10:46;;;;;;;3.70;2.38;;;11.90;99.90;;;;;;5056728;28;20041;-62
2022/09/01 02:13:17;;;;;;;3.58;2.10;;;11.80;99.90;;;;;;5056102;28;20048;-62
2022/09/01 02:15:47;;;;;;;2.70;2.05;;;11.70;99.90;;;;;;5050042;28;20381;-62
2022/09/01 02:18:23;;;;;;;3.03;2.42;;;11.70;99.90;;;;;;5034236;28;20045;-62
2022/09/01 02:20:51;;;;;;;2.70;2.30;;;11.70;99.90;;;;;;5050550;28;20041;-61
2022/09/01 02:23:22;;;;;;;5.97;2.13;;;11.70;99.90;;;;;;5057227;28;20044;-62
2022/09/01 02:25:49;;;;;;;3.20;1.90;;;11.70;99.90;;;;;;5059276;28;20032;-62
2022/09/01 02:28:17;;;;;;;2.30;2.05;;;11.70;99.90;;;;;;5063635;28;20051;-62
2022/09/01 02:30:52;;;;;;;2.83;2.20;;;11.70;99.90;;;;;;5054253;28;20400;-62
2022/09/01 02:33:19;;;;;;;3.28;2.30;;;11.80;99.90;;;;;;5069554;28;20680;-62
2022/09/01 02:35:47;;;;;;;3.00;2.20;;;11.80;99.90;;;;;;5051090;28;20156;-62
2022/09/01 02:38:13;;;;;;;5.85;2.30;;;11.80;99.90;;;;;;5063028;28;20066;-62
2022/09/01 02:40:42;;;;;;;2.88;1.95;;;11.80;99.90;;;;;;5051315;28;20041;-62
2022/09/01 02:43:10;;;;;;;2.13;1.90;;;11.80;99.90;;;;;;5035512;28;20453;-62
2022/09/01 02:45:37;;;;;;;2.53;2.22;;;11.80;99.90;;;;;;5058524;28;20037;-62
2022/09/01 02:48:06;;;;;;;3.13;2.25;;;11.80;99.90;;;;;;5052548;28;20041;-61
2022/09/01 02:50:32;;;;;;;2.77;2.40;;;11.70;99.90;;;;;;5050325;28;20044;-62
2022/09/01 02:53:00;;;;;;;2.88;2.15;;;11.60;99.90;;;;;;5050938;28;20107;-62
2022/09/01 02:55:25;;;;;;;2.85;2.22;;;11.60;99.90;;;;;;5036948;28;20045;-62
2022/09/01 02:57:55;;;;;;;3.65;2.35;;;11.60;99.90;;;;;;5048311;28;20103;-62
2022/09/01 03:00:27;;;;;;;4.47;2.50;;;11.60;99.90;;;;;;5061106;28;20124;-62
2022/09/01 03:02:55;;;;;;;4.15;2.30;;;11.50;99.90;;;;;;5048154;28;20446;-62
2022/09/01 03:05:25;;;;;;;6.72;2.17;;;11.50;99.90;;;;;;5060557;28;20060;-62
2022/09/01 03:08:02;;;;;;;2.67;2.40;;;11.50;99.90;;;;;;5053769;28;20401;-62
2022/09/01 03:10:32;;;;;;;2.80;2.13;;;11.50;99.90;;;;;;5053144;28;20565;-62
2022/09/01 03:13:00;;;;;;;4.40;2.33;;;11.50;99.90;;;;;;5055400;28;20032;-62
2022/09/01 03:15:27;;;;;;;3.22;2.10;;;11.50;99.90;;;;;;5055679;28;20072;-62
2022/09/01 03:17:52;;;;;;;4.32;2.38;;;11.50;99.90;;;;;;5051557;28;20056;-62
2022/09/01 03:20:20;;;;;;;3.30;2.40;;;11.50;99.90;;;;;;5036765;28;20036;-62
2022/09/01 03:22:47;;;;;;;3.08;2.40;;;11.50;99.90;;;;;;5054006;28;20033;-62
2022/09/01 03:25:13;;;;;;;3.00;2.20;;;11.50;99.90;;;;;;5050651;28;20040;-62
2022/09/01 03:27:39;;;;;;;4.13;2.55;;;11.50;99.90;;;;;;5050073;28;20040;-61
2022/09/01 03:30:05;;;;;;;3.67;2.25;;;11.50;99.90;;;;;;5051553;28;20028;-62
2022/09/01 03:32:31;;;;;;;5.15;2.50;;;11.50;99.90;;;;;;5053917;28;20194;-62
2022/09/01 03:34:57;;;;;;;2.22;2.03;;;11.40;99.90;;;;;;5051667;28;20201;-61
2022/09/01 03:37:23;;;;;;;4.55;2.50;;;11.40;99.90;;;;;;5047138;28;20044;-62
2022/09/01 03:39:48;;;;;;;2.25;2.05;;;11.40;99.90;;;;;;5048178;28;20029;-61
2022/09/01 03:42:26;;;;;;;3.40;2.53;;;11.40;99.90;;;;;;5053676;28;20036;-62
2022/09/01 03:44:54;;;;;;;3.63;2.33;;;11.40;99.90;;;;;;5046719;28;20060;-62
2022/09/01 03:47:20;;;;;;;4.38;2.70;;;11.40;99.90;;;;;;5054408;28;20065;-62
2022/09/01 03:49:48;;;;;;;3.50;2.50;;;11.40;99.90;;;;;;5038011;28;20044;-62
2022/09/01 03:52:14;;;;;;;4.60;2.47;;;11.30;99.90;;;;;;5051024;28;20048;-62
2022/09/01 03:54:40;;;;;;;6.30;2.40;;;11.30;99.90;;;;;;5053337;28;20036;-62
2022/09/01 03:57:08;;;;;;;4.65;2.65;;;11.30;99.90;;;;;;5052361;28;20037;-61
2022/09/01 03:59:34;;;;;;;3.38;2.53;;;11.30;99.90;;;;;;5051642;28;20041;-62
2022/09/01 04:02:01;;;;;;;2.85;2.28;;;11.30;99.90;;;;;;5047857;28;20063;-61
2022/09/01 04:04:31;;;;;;;3.78;2.60;;;11.30;99.90;;;;;;5049927;28;20140;-61
2022/09/01 04:06:59;;;;;;;4.82;2.60;;;11.30;99.90;;;;;;5051034;28;20086;-62
2022/09/01 04:09:25;;;;;;;4.40;2.50;;;11.30;99.90;;;;;;5049840;28;20476;-62
2022/09/01 04:11:51;;;;;;;3.42;2.42;;;11.30;99.90;;;;;;5055327;28;20124;-62
2022/09/01 04:14:17;;;;;;;3.42;2.67;;;11.30;99.90;;;;;;5052207;28;20068;-62
2022/09/01 04:19:29;;;;;;;2.55;2.35;;;11.20;99.90;;;;;;5048429;28;20049;-61
2022/09/01 04:21:58;;;;;;;4.90;2.33;;;11.20;99.90;;;;;;5048048;28;20083;-61
2022/09/01 04:24:27;;;;;;;3.30;2.25;;;11.20;99.90;;;;;;5050301;28;20391;-62
2022/09/01 04:26:55;;;;;;;4.85;2.53;;;11.20;99.90;;;;;;5055985;28;20087;-62
2022/09/01 04:29:27;;;;;;;3.83;2.60;;;11.20;99.90;;;;;;5055515;28;20481;-61
2022/09/01 04:32:00;;;;;;;3.45;2.63;;;11.20;99.90;;;;;;5058906;28;20084;-61
2022/09/01 04:34:27;;;;;;;3.55;2.63;;;11.20;99.90;;;;;;5052281;28;20048;-62
2022/09/01 04:36:53;;;;;;;3.13;2.25;;;11.30;99.90;;;;;;5054577;28;20440;-62
2022/09/01 04:39:19;;;;;;;3.83;2.78;;;11.30;99.90;;;;;;5047497;28;20401;-61
2022/09/01 04:41:45;;;;;;;6.50;2.60;;;11.40;99.90;;;;;;5047497;28;20041;-62
2022/09/01 04:44:14;;;;;;;4.15;2.50;;;11.30;99.90;;;;;;5051831;28;20055;-61
2022/09/01 04:46:44;;;;;;;2.92;2.28;;;11.30;99.90;;;;;;5054770;28;20119;-62
2022/09/01 04:49:09;;;;;;;4.27;2.30;;;11.40;99.90;;;;;;5045633;28;20641;-61
2022/09/01 04:51:45;;;;;;;4.25;2.47;;;11.40;99.90;;;;;;5048392;28;20303;-62
2022/09/01 04:54:13;;;;;;;5.13;2.42;;;11.40;99.90;;;;;;5055496;28;20044;-61
2022/09/01 04:56:40;;;;;;;4.32;2.60;;;11.30;99.90;;;;;;5052520;28;20595;-61
2022/09/01 04:59:07;;;;;;;3.80;2.63;;;11.30;99.90;;;;;;5047010;28;20047;-61
2022/09/01 05:01:42;;;;;;;4.93;2.67;;;11.30;99.90;;;;;;5050025;28;20080;-62
2022/09/01 05:04:23;;;;;;;8.38;2.75;;;11.40;99.90;;;;;;5049717;28;20051;-62
2022/09/01 05:06:59;;;;;;;9.93;2.95;;;11.40;99.90;;;;;;5058475;28;20392;-62
2022/09/01 05:09:31;;;;;;;11.68;3.72;;;11.40;99.90;;;;;;5036706;28;20076;-62
2022/09/01 05:12:00;;;;;;;13.10;3.30;;;11.40;99.90;;;;;;5049974;28;20060;-62
2022/09/01 05:14:26;;;;;;;6.47;3.30;;;11.40;99.90;;;;;;5046836;28;20052;-62
2022/09/01 05:16:57;;;;;;;5.47;3.08;;;11.40;99.90;;;;;;5052955;28;20032;-61
2022/09/01 05:19:24;;;;;;;6.95;2.97;;;11.50;99.90;;;;;;5037242;28;20041;-62
2022/09/01 05:21:50;;;;;;;5.55;3.08;;;11.50;99.90;;;;;;5053830;28;20135;-62
2022/09/01 05:24:20;;;;;;;4.13;2.70;;;11.50;99.90;;;;;;5057674;28;20119;-62
2022/09/01 05:26:47;;;;;;;4.10;2.60;;;11.60;99.90;;;;;;5049998;28;20163;-62
2022/09/01 05:29:16;;;;;;;2.63;2.42;;;11.60;99.90;;;;;;5059602;28;20045;-62
2022/09/01 05:31:47;;;;;;;4.15;2.63;;;11.60;99.90;;;;;;5032586;28;20056;-62
2022/09/01 05:34:14;;;;;;;5.57;3.20;;;11.60;99.90;;;;;;5050267;28;20044;-62
2022/09/01 05:36:45;;;;;;;6.30;3.17;;;11.60;99.90;;;;;;5051878;28;20056;-62
2022/09/01 05:39:11;;;;;;;4.20;3.08;;;11.60;99.90;;;;;;5064057;28;20044;-62
2022/09/01 05:41:39;;;;;;;4.60;3.03;;;11.70;99.90;;;;;;5060555;28;20401;-62
2022/09/01 05:44:06;;;;;;;4.82;2.95;;;11.70;99.90;;;;;;5038001;28;20055;-62
2022/09/01 05:46:34;;;;;;;3.30;2.90;;;11.70;99.90;;;;;;5054166;28;20557;-62
2022/09/01 05:48:59;;;;;;;3.63;2.90;;;11.70;99.90;;;;;;5062078;28;20044;-62
2022/09/01 05:51:27;;;;;;;4.80;2.83;;;11.70;99.90;;;;;;5054803;28;20051;-61
2022/09/01 05:53:57;;;;;;;5.95;2.83;;;11.60;99.90;;;;;;5060948;28;20062;-62
2022/09/01 05:56:25;;;;;;;6.63;3.35;;;11.70;99.90;;;;;;5033611;28;20496;-62
2022/09/01 05:58:52;;;;;;;4.85;2.95;;;11.60;99.90;;;;;;5052334;28;20048;-62
2022/09/01 06:01:21;;;;;;;5.90;3.08;;;11.70;99.90;;;;;;5055104;28;20032;-62
2022/09/01 06:03:55;;;;;;;8.13;3.25;;;11.80;99.90;;;;;;5056649;28;20068;-61
2022/09/01 06:06:27;;;;;;;5.75;2.97;;;11.90;99.90;;;;;;5054774;28;20527;-62
2022/09/01 06:08:57;;;;;;;4.38;2.83;;;12.00;99.90;;;;;;5043196;28;20090;-62
2022/09/01 06:11:23;;;;;;;3.83;3.00;;;12.10;99.90;;;;;;5057340;28;20090;-62
2022/09/01 06:13:51;;;;;;;6.72;2.97;;;12.20;99.90;;;;;;5055371;28;20044;-62
2022/09/01 06:16:18;;;;;;;3.67;3.00;;;12.30;99.90;;;;;;5064517;28;20051;-60
2022/09/01 06:18:44;;;;;;;3.83;2.90;;;12.50;99.90;;;;;;5058081;28;20052;-62
2022/09/01 06:21:13;;;;;;;8.70;3.40;;;12.70;99.90;;;;;;5061004;28;20036;-62
2022/09/01 06:23:43;;;;;;;5.35;3.15;;;12.90;99.90;;;;;;5062438;28;20041;-62
2022/09/01 06:26:41;;;;;;;6.27;3.20;;;13.00;99.90;;;;;;5064300;28;20047;-62
2022/09/01 06:29:10;;;;;;;5.88;2.88;;;13.20;99.90;;;;;;5002591;28;20182;-62
2022/09/01 06:31:38;;;;;;;4.90;2.97;;;13.40;99.90;;;;;;5057408;28;20040;-62
2022/09/01 06:34:05;;;;;;;4.53;2.95;;;13.60;99.90;;;;;;5055841;28;20138;-61
2022/09/01 06:36:35;;;;;;;6.25;2.92;;;13.90;99.90;;;;;;5056328;28;20036;-62
2022/09/01 06:39:01;;;;;;;3.23;2.60;;;14.20;99.90;;;;;;5056609;28;20048;-62
2022/09/01 06:41:27;;;;;;;4.18;2.40;;;14.50;99.90;;;;;;5059503;28;20287;-63
2022/09/01 06:43:53;;;;;;;3.20;2.28;;;14.80;99.90;;;;;;5058513;28;20503;-62
2022/09/01 06:46:22;;;;;;;3.20;2.65;;;15.10;99.90;;;;;;5064932;28;20056;-62
2022/09/01 06:48:48;;;;;;;5.43;2.63;;;15.40;99.90;;;;;;5064006;28;20040;-62
2022/09/01 06:51:19;;;;;;;3.05;2.30;;;15.70;99.90;;;;;;5062009;28;20048;-63
2022/09/01 06:53:51;;;;;;;4.07;2.50;;;16.00;99.90;;;;;;5061775;28;20037;-63
2022/09/01 06:56:18;;;;;;;3.85;2.10;;;16.30;99.90;;;;;;5064665;28;20036;-63
2022/09/01 06:58:47;;;;;;;3.55;2.00;;;16.50;99.90;;;;;;5060982;28;20089;-63
2022/09/01 07:01:16;;;;;;;3.55;1.75;;;16.80;99.90;;;;;;5045369;28;20072;-63
2022/09/01 07:03:43;;;;;;;3.50;1.90;;;17.10;99.90;;;;;;5058905;28;20115;-63
2022/09/01 07:06:10;;;;;;;1.80;1.70;;;17.30;99.90;;;;;;5051396;28;20032;-61
2022/09/01 07:08:38;;;;;;;2.60;1.95;;;17.60;99.80;;;;;;5056138;28;20119;-61
2022/09/01 07:11:15;;;;;;;2.72;1.45;;;17.80;99.30;;;;;;5055635;28;20041;-61
2022/09/01 07:13:43;;;;;;;2.53;1.70;;;18.00;98.10;;;;;;5049240;28;20097;-59
2022/09/01 07:16:20;;;;;;;4.53;2.00;;;18.30;98.10;;;;;;5064889;28;20041;-60
2022/09/01 07:18:45;;;;;;;2.35;1.92;;;18.60;96.10;;;;;;5062359;28;20041;-61
2022/09/01 07:21:11;;;;;;;2.17;1.63;;;18.70;96.80;;;;;;5062661;28;20044;-61
2022/09/01 07:23:37;;;;;;;4.93;1.83;;;19.00;96.20;;;;;;5053882;28;20604;-61
2022/09/01 07:26:05;;;;;;;3.20;1.50;;;19.20;95.50;;;;;;5050304;28;20118;-61
2022/09/01 07:28:32;;;;;;;3.75;1.42;;;19.50;94.60;;;;;;5056951;28;20071;-61
2022/09/01 07:30:57;;;;;;;2.35;1.40;;;19.70;93.70;;;;;;5067503;28;20091;-60
2022/09/01 07:33:24;;;;;;;2.47;1.40;;;20.20;92.50;;;;;;5052334;28;20467;-61
2022/09/01 07:35:54;;;;;;;2.17;1.42;;;20.30;91.30;;;;;;5058880;28;20047;-61
2022/09/01 07:38:21;;;;;;;2.15;1.35;;;20.30;90.10;;;;;;5065264;28;20046;-61
2022/09/01 07:40:47;;;;;;;3.47;1.50;;;20.40;88.10;;;;;;5067765;28;20780;-61
2022/09/01 07:43:23;;;;;;;3.05;1.10;;;20.40;86.60;;;;;;5053091;28;20112;-61
2022/09/01 07:45:54;;;;;;;4.25;1.45;;;20.70;85.00;;;;;;5068559;28;20044;-60
2022/09/01 07:48:22;;;;;;;1.90;1.50;;;20.80;83.80;;;;;;5053117;28;20094;-60
2022/09/01 07:50:51;;;;;;;3.47;1.80;;;21.10;83.00;;;;;;5048853;28;20037;-61
2022/09/01 07:53:21;;;;;;;1.92;1.33;;;21.20;81.30;;;;;;5050209;28;20037;-61
2022/09/01 07:55:49;;;;;;;4.10;1.83;;;21.40;80.90;;;;;;5067726;28;20040;-61
2022/09/01 07:58:16;;;;;;;2.50;1.38;;;21.60;79.30;;;;;;5061216;28;20044;-61
2022/09/01 08:00:46;;;;;;;1.98;1.27;;;21.90;77.70;;;;;;5062109;28;20043;-62
2022/09/01 08:03:13;;;;;;;2.15;1.10;;;22.00;75.70;;;;;;5055464;28;20062;-61
2022/09/01 08:05:39;;;;;;;1.98;1.35;;;21.90;75.00;;;;;;5054707;28;20525;-61
2022/09/01 08:08:05;;;;;;;2.60;1.25;;;21.90;75.30;;;;;;5056038;28;20040;-61
2022/09/01 08:10:31;;;;;;;2.83;1.30;;;21.60;75.40;;;;;;5065584;28;20624;-61
2022/09/01 08:12:56;;;;;;;4.32;1.45;;;21.50;75.60;;;;;;5055051;28;20048;-61
2022/09/01 08:15:23;;;;;;;1.73;1.10;;;21.20;75.50;;;;;;5062222;28;20040;-61
2022/09/01 08:17:49;;;;;;;3.03;1.60;;;21.10;75.70;;;;;;5053131;28;20047;-63
2022/09/01 08:20:14;;;;;;;2.30;1.40;;;21.10;75.10;;;;;;5060327;28;20037;-61
2022/09/01 08:22:40;;;;;;;2.00;1.25;;;21.00;74.70;;;;;;5058017;28;20520;-61
2022/09/01 08:25:09;;;;;;;2.47;1.50;;;21.10;74.40;;;;;;5057724;28;20044;-61
2022/09/01 08:27:37;;;;;;;3.65;1.40;;;21.00;74.30;;;;;;5065743;28;20056;-61
2022/09/01 08:30:06;;;;;;;2.42;1.40;;;21.00;73.20;;;;;;5061463;28;20095;-61
2022/09/01 08:32:32;;;;;;;2.88;1.38;;;21.20;72.80;;;;;;5057021;28;20086;-60
2022/09/01 08:34:58;;;;;;;2.72;1.17;;;21.50;71.50;;;;;;5050546;28;20060;-61
2022/09/01 08:37:24;;;;;;;1.60;1.30;;;22.10;70.30;;;;;;5063718;28;20040;-61
2022/09/01 08:39:51;;;;;;;1.60;1.02;;;22.60;67.90;;;;;;5067240;28;20378;-61
2022/09/01 08:42:48;;;;;;;1.55;1.10;;;23.10;66.30;;;;;;5062415;28;20400;-61
2022/09/01 08:45:39;;;;;;;2.45;1.38;;;23.90;64.70;;;;;;5047707;28;20135;-61
2022/09/01 08:48:19;;;;;;;1.95;0.85;;;24.40;62.90;;;;;;5054843;28;20049;-62
2022/09/01 08:50:52;;;;;;;1.80;1.10;;;24.80;61.60;;;;;;5062619;28;20047;-63
2022/09/01 08:53:27;;;;;;;2.80;1.20;;;25.50;60.00;;;;;;5067077;28;20124;-62
2022/09/01 08:55:57;;;;;;;2.42;1.00;;;25.70;58.30;;;;;;5058748;28;20491;-63
2022/09/01 08:58:23;;;;;;;2.17;1.00;;;26.10;56.80;;;;;;5068130;28;20036;-63
2022/09/01 09:01:06;;;;;;;1.90;1.02;;;26.20;57.60;;;;;;5059956;28;20031;-62
2022/09/01 09:03:48;;;;;;;2.05;1.10;;;26.40;56.10;;;;;;5064075;28;20503;-62
2022/09/01 09:06:23;;;;;;;0.93;0.73;;;26.40;56.40;;;;;;5065477;28;20044;-63
2022/09/01 09:08:59;;;;;;;2.47;0.90;;;25.90;56.60;;;;;;5060672;28;20048;-62
2022/09/01 09:11:44;;;;;;;4.22;0.98;;;25.60;55.50;;;;;;5040994;28;20047;-63
2022/09/01 09:14:42;;;;;;;1.33;0.93;;;25.20;55.30;;;;;;5046271;28;20071;-61
2022/09/01 09:17:09;;;;;;;1.58;1.10;;;25.10;55.90;;;;;;5056091;28;20088;-61
2022/09/01 09:19:38;;;;;;;1.17;0.80;;;25.20;56.30;;;;;;5056253;28;20075;-61
2022/09/01 09:22:09;;;;;;;3.63;0.93;;;25.30;55.90;;;;;;5056240;28;20102;-61
2022/09/01 09:24:49;;;;;;;2.08;0.80;;;25.60;55.30;;;;;;5040704;28;20037;-63
2022/09/01 09:27:31;;;;;;;1.15;0.52;;;26.00;54.60;;;;;;5060123;28;20059;-62
2022/09/01 09:30:01;;;;;;;1.20;0.90;;;25.90;52.40;;;;;;5066115;28;20048;-62
2022/09/01 09:32:52;;;;;;;1.88;0.80;;;25.70;52.30;;;;;;5058085;28;20136;-61
2022/09/01 09:35:35;;;;;;;2.42;0.70;;;24.90;53.50;;;;;;5035502;28;20032;-62
2022/09/01 09:38:21;;;;;;;2.00;0.88;;;24.30;55.20;;;;;;5059483;28;20049;-61
2022/09/01 09:41:19;;;;;;;1.63;0.80;;;23.70;54.60;;;;;;5058321;28;20048;-61
2022/09/01 09:44:03;;;;;;;2.22;0.88;;;23.20;55.80;;;;;;5062829;28;20089;-61
2022/09/01 09:46:35;;;;;;;1.40;0.60;;;23.00;56.50;;;;;;5067845;28;20048;-61
2022/09/01 09:49:18;;;;;;;2.20;0.60;;;23.10;56.90;;;;;;5059346;28;20512;-61
2022/09/01 09:51:55;;;;;;;1.25;0.70;;;23.10;56.80;;;;;;5063897;28;20044;-63
2022/09/01 09:54:29;;;;;;;0.73;0.50;;;23.00;56.30;;;;;;5068438;28;20417;-61
2022/09/01 09:57:21;;;;;;;1.25;0.57;;;23.10;56.10;;;;;;5060912;28;20127;-61
2022/09/01 10:00:22;;;;;;;0.95;0.70;;;23.00;55.40;;;;;;5059997;28;20063;-62
2022/09/01 10:02:55;;;;;;;2.13;0.60;;;23.00;55.30;;;;;;5062403;28;20044;-61
2022/09/01 10:05:32;;;;;;;1.27;0.70;;;22.90;55.80;;;;;;5066253;28;20049;-60
2022/09/01 10:07:57;;;;;;;0.85;0.50;;;22.90;55.00;;;;;;5051085;28;20080;-64
2022/09/01 10:10:45;;;;;;;1.15;0.70;;;22.70;54.90;;;;;;5059618;28;20087;-64
2022/09/01 10:13:17;;;;;;;6.78;0.70;;;22.60;54.10;;;;;;5062264;28;20439;-61
2022/09/01 10:15:47;;;;;;;1.60;0.60;;;22.40;55.30;;;;;;5050990;28;20036;-62
2022/09/01 10:18:14;;;;;;;;;;;22.40;55.80;;;;;;5052551;28;20131;-65
2022/09/01 10:20:48;;;;;;;0.90;0.50;;;22.70;55.90;;;;;;5062879;28;20256;-62
2022/09/01 10:23:14;;;;;;;0.82;0.52;;;22.70;55.40;;;;;;5061301;28;20037;-64
2022/09/01 10:25:41;;;;;;;7.63;0.70;;;22.90;55.50;;;;;;5059358;28;20118;-63
2022/09/01 10:28:13;;;;;;;0.77;0.57;;;23.20;54.60;;;;;;5061963;28;20136;-64
2022/09/01 10:30:42;;;;;;;1.85;0.40;;;23.20;52.80;;;;;;5052284;28;20086;-63
2022/09/01 10:33:09;;;;;;;1.98;0.80;;;23.20;51.40;;;;;;5060947;28;20423;-63
2022/09/01 10:35:38;;;;;;;2.55;0.68;;;23.00;52.20;;;;;;5057519;28;20041;-63
2022/09/01 10:38:08;;;;;;;1.23;0.57;;;23.00;52.30;;;;;;5062001;28;20087;-64
2022/09/01 10:40:39;;;;;;;4.03;0.63;;;23.10;52.20;;;;;;5068107;28;20041;-63
2022/09/01 10:43:32;;;;;;;1.85;0.60;;;22.90;52.30;;;;;;5040622;28;20056;-66
2022/09/01 10:45:57;;;;;;;1.70;0.50;;;23.00;50.80;;;;;;5061397;28;20109;-61
2022/09/01 10:48:33;;;;;;;1.75;0.50;;;23.20;52.10;;;;;;5048260;28;20044;-62
2022/09/01 10:51:14;;;;;;;0.82;0.73;;;23.20;51.50;;;;;;5059551;28;20530;-61
2022/09/01 10:53:43;;;;;;;1.77;0.60;;;23.30;51.30;;;;;;5046573;28;20051;-63
2022/09/01 10:56:22;;;;;;;2.00;0.60;;;23.30;50.90;;;;;;5059383;28;20051;-63
2022/09/01 10:59:06;;;;;;;3.72;0.45;;;23.30;51.00;;;;;;5061821;28;20435;-62
2022/09/01 11:01:44;;;;;;;2.15;0.60;;;23.20;51.30;;;;;;5065541;28;20148;-62
2022/09/01 11:04:14;;;;;;;1.67;0.63;;;23.20;50.50;;;;;;5059228;28;20472;-64
2022/09/01 11:06:52;;;;;;;2.28;0.63;;;23.10;50.90;;;;;;5063053;28;20644;-64
2022/09/01 11:09:35;;;;;;;0.68;0.50;;;22.80;50.40;;;;;;5066768;28;20050;-63
2022/09/01 11:12:43;;;;;;;1.60;0.50;;;22.80;51.20;;;;;;5056590;28;20106;-62
2022/09/01 11:15:15;;;;;;;2.67;0.63;;;22.80;51.30;;;;;;5041181;28;20076;-63
2022/09/01 11:17:50;;;;;;;1.77;0.68;;;22.70;51.20;;;;;;5061457;28;20040;-64
2022/09/01 11:20:28;;;;;;;0.90;0.80;;;22.50;51.00;;;;;;5062222;28;20475;-62
2022/09/01 11:23:04;;;;;;;2.67;0.75;;;22.70;51.90;;;;;;5043118;28;20109;-65
2022/09/01 11:25:37;;;;;;;1.90;0.85;;;22.80;51.50;;;;;;5060313;28;20037;-61
2022/09/01 11:28:07;;;;;;;1.05;0.70;;;23.00;51.20;;;;;;5051959;28;20077;-63
2022/09/01 11:30:54;;;;;;;2.40;0.70;;;23.00;51.50;;;;;;5053223;28;20040;-64
2022/09/01 11:33:41;;;;;;;1.48;0.70;;;23.00;51.20;;;;;;5051085;28;20109;-63
2022/09/01 11:36:23;;;;;;;2.67;0.60;;;22.70;51.70;;;;;;5055857;28;20045;-62
2022/09/01 11:39:05;;;;;;;2.13;0.70;;;22.70;52.30;;;;;;5051734;28;20116;-64
2022/09/01 11:41:42;;;;;;;2.08;0.80;;;22.60;51.30;;;;;;5049975;28;20031;-63
2022/09/01 11:44:43;;;;;;;1.45;0.70;;;22.60;51.90;;;;;;5058945;28;20033;-62
2022/09/01 11:47:26;;;;;;;1.63;0.70;;;22.60;52.40;;;;;;5050221;28;20049;-64
2022/09/01 11:49:57;;;;;;;1.10;0.60;;;22.80;52.30;;;;;;5059391;28;20122;-63
2022/09/01 11:52:29;;;;;;;2.85;0.52;;;22.90;51.90;;;;;;5058770;28;20170;-62
2022/09/01 11:54:55;;;;;;;2.70;0.80;;;22.70;51.40;;;;;;5068978;28;20048;-65
2022/09/01 11:57:39;;;;;;;2.63;0.68;;;22.60;51.70;;;;;;5052468;28;20032;-63
2022/09/01 12:00:11;;;;;;;1.13;0.52;;;22.50;51.80;;;;;;5032710;28;20067;-63
2022/09/01 12:02:55;;;;;;;3.33;0.68;;;22.50;52.10;;;;;;5041377;28;20037;-63
2022/09/01 12:05:37;;;;;;;4.18;0.80;;;22.60;52.00;;;;;;5032570;28;20029;-63
2022/09/01 12:08:16;;;;;;;1.38;0.65;;;22.70;51.90;;;;;;5054676;28;20159;-63
2022/09/01 12:10:44;;;;;;;1.35;0.50;;;22.60;51.40;;;;;;5032142;28;20045;-63
2022/09/01 12:13:22;;;;;;;6.93;0.68;;;22.50;51.80;;;;;;5060256;28;20037;-63
2022/09/01 12:15:57;;;;;;;1.92;0.77;;;22.40;52.00;;;;;;5052065;28;20033;-62
2022/09/01 12:18:26;;;;;;;3.13;0.57;;;22.10;52.30;;;;;;5061659;28;20037;-63
2022/09/01 12:20:55;;;;;;;3.88;0.70;;;22.20;52.70;;;;;;5054681;28;20052;-62
2022/09/01 12:23:41;;;;;;;2.50;0.65;;;22.10;52.70;;;;;;5055932;28;20033;-63
2022/09/01 12:26:27;;;;;;;1.67;0.80;;;22.30;53.20;;;;;;5054968;28;20040;-63
2022/09/01 12:28:54;;;;;;;2.33;0.70;;;22.50;52.10;;;;;;5061119;28;20041;-64
2022/09/01 12:31:23;;;;;;;1.13;0.60;;;22.80;52.00;;;;;;5044572;28;20068;-63
2022/09/01 12:33:50;;;;;;;3.72;0.85;;;22.90;51.40;;;;;;5032226;28;20052;-62
2022/09/01 12:36:28;;;;;;;1.65;0.75;;;23.10;51.20;;;;;;5055148;28;20040;-63
2022/09/01 12:39:16;;;;;;;6.00;0.90;;;23.20;50.80;;;;;;5071188;28;20044;-63
2022/09/01 12:41:45;;;;;;;1.15;0.60;;;22.70;50.40;;;;;;5049442;28;20064;-63
2022/09/01 12:44:31;;;;;;;2.60;0.73;;;22.70;51.40;;;;;;5068001;28;20036;-63
2022/09/01 12:47:10;;;;;;;2.05;0.80;;;23.10;50.90;;;;;;5063473;28;20053;-63
2022/09/01 12:49:45;;;;;;;0.85;0.60;;;23.20;50.40;;;;;;5056478;28;20056;-63
2022/09/01 12:52:18;;;;;;;4.90;0.75;;;23.10;50.50;;;;;;5037905;28;20036;-63
2022/09/01 12:54:48;;;;;;;3.58;0.80;;;22.90;50.10;;;;;;5063170;28;20049;-62
2022/09/01 12:57:28;;;;;;;;;;;23.80;50.70;;;;;;5052509;28;20059;-62
2022/09/01 13:00:10;;;;;;;1.42;0.50;;;26.80;47.80;;;;;;5037644;28;20350;-62
2022/09/01 13:02:41;;;;;;;2.03;0.77;;;29.20;44.80;;;;;;5051427;28;20045;-63
2022/09/01 13:05:30;;;;;;;2.45;0.73;;;30.90;41.20;;;;;;5064062;28;20511;-63
2022/09/01 13:08:05;;;;;;;2.08;0.75;;;32.20;38.70;;;;;;5070089;28;20119;-63
2022/09/01 13:10:46;;;;;;;2.72;0.50;;;32.60;36.90;;;;;;5056410;28;20041;-63
2022/09/01 13:13:14;;;;;;;4.30;0.80;;;34.10;37.10;;;;;;5061203;28;20073;-64
2022/09/01 13:15:46;;;;;;;3.78;0.60;;;34.80;36.80;;;;;;5064558;28;20095;-63